createdAt,value
2017-10-13T00:00:47.804Z,3.80
2017-10-13T00:03:16.152Z,3.77
2017-10-13T00:05:44.491Z,3.17
2017-10-13T00:08:12.871Z,3.83
2017-10-13T00:10:41.216Z,3.30
2017-10-13T00:13:09.559Z,3.67
2017-10-13T00:15:37.914Z,5.40
2017-10-13T00:18:06.267Z,3.63
2017-10-13T00:20:34.630Z,4.47
2017-10-13T00:23:02.979Z,3.20
2017-10-13T00:25:31.327Z,4.47
2017-10-13T00:27:59.707Z,4.10
2017-10-13T00:30:28.239Z,4.07
2017-10-13T00:32:56.588Z,4.90
2017-10-13T00:35:24.960Z,3.80
2017-10-13T00:37:53.303Z,4.40
2017-10-13T00:40:21.656Z,4.50
2017-10-13T00:42:50.000Z,4.73
2017-10-13T00:45:18.342Z,5.13
2017-10-13T00:47:46.700Z,4.10
2017-10-13T00:50:15.074Z,5.10
2017-10-13T00:52:43.423Z,4.13
2017-10-13T00:55:11.777Z,3.83
2017-10-13T00:57:40.141Z,3.37
2017-10-13T01:00:08.512Z,3.87
2017-10-13T01:02:36.855Z,4.23
2017-10-13T01:05:05.203Z,4.63
2017-10-13T01:07:33.548Z,4.07
2017-10-13T01:10:02.465Z,4.10
2017-10-13T01:12:30.838Z,3.27
2017-10-13T01:14:59.184Z,3.53
2017-10-13T01:17:27.536Z,4.90
2017-10-13T01:19:55.910Z,3.57
2017-10-13T01:22:24.270Z,4.03
2017-10-13T01:24:52.606Z,3.60
2017-10-13T01:27:20.955Z,3.70
2017-10-13T01:29:49.308Z,4.20
2017-10-13T01:32:17.650Z,4.10
2017-10-13T01:34:46.005Z,3.70
2017-10-13T01:37:14.354Z,3.60
2017-10-13T01:39:42.710Z,4.20
2017-10-13T01:42:11.069Z,3.67
2017-10-13T01:44:39.449Z,3.53
2017-10-13T01:47:07.799Z,4.20
2017-10-13T01:49:36.383Z,4.60
2017-10-13T01:52:04.732Z,3.50
2017-10-13T01:54:33.082Z,3.20
2017-10-13T01:57:01.443Z,4.00
2017-10-13T01:59:29.795Z,3.63
2017-10-13T02:01:58.139Z,4.13
2017-10-13T02:04:26.492Z,4.20
2017-10-13T02:06:54.842Z,3.40
2017-10-13T02:09:23.195Z,4.27
2017-10-13T02:11:51.557Z,4.27
2017-10-13T02:14:19.976Z,3.73
2017-10-13T02:16:48.324Z,4.43
2017-10-13T02:19:16.677Z,3.50
2017-10-13T02:21:45.031Z,3.03
2017-10-13T02:24:13.388Z,3.40
2017-10-13T02:26:41.731Z,3.90
2017-10-13T02:29:10.071Z,4.30
2017-10-13T02:31:38.447Z,3.83
2017-10-13T02:34:06.811Z,4.67
2017-10-13T02:36:35.168Z,4.20
2017-10-13T02:39:03.518Z,4.27
2017-10-13T02:41:31.876Z,3.70
2017-10-13T02:44:00.256Z,5.30
2017-10-13T02:46:28.619Z,3.90
2017-10-13T02:48:56.963Z,4.50
2017-10-13T02:51:25.315Z,4.20
2017-10-13T02:53:53.667Z,4.00
2017-10-13T02:56:22.030Z,3.83
2017-10-13T02:58:50.386Z,3.80
2017-10-13T03:01:18.747Z,4.87
2017-10-13T03:03:47.096Z,4.40
2017-10-13T03:06:15.463Z,4.20
2017-10-13T03:08:43.810Z,4.40
2017-10-13T03:11:12.244Z,3.97
2017-10-13T03:13:40.591Z,4.60
2017-10-13T03:16:09.303Z,4.83
2017-10-13T03:18:37.652Z,4.03
2017-10-13T03:21:06.036Z,3.83
2017-10-13T03:23:34.379Z,4.13
2017-10-13T03:26:02.732Z,3.90
2017-10-13T03:28:31.088Z,4.00
2017-10-13T03:30:59.455Z,4.60
2017-10-13T03:33:27.803Z,4.80
2017-10-13T03:35:56.159Z,4.47
2017-10-13T03:38:24.539Z,4.30
2017-10-13T03:40:52.883Z,4.53
2017-10-13T03:43:21.235Z,4.70
2017-10-13T03:45:49.592Z,4.50
2017-10-13T03:48:17.974Z,4.93
2017-10-13T03:50:46.323Z,4.30
2017-10-13T03:53:14.678Z,5.80
2017-10-13T03:55:43.037Z,5.30
2017-10-13T03:58:11.410Z,5.10
2017-10-13T04:00:39.763Z,5.33
2017-10-13T04:03:08.119Z,6.20
2017-10-13T04:05:36.467Z,6.17
2017-10-13T04:08:04.831Z,6.53
2017-10-13T04:10:33.175Z,6.30
2017-10-13T04:13:01.528Z,6.80
2017-10-13T04:15:29.871Z,8.23
2017-10-13T04:17:58.231Z,7.50
2017-10-13T04:20:26.608Z,6.83
2017-10-13T04:22:54.958Z,8.60
2017-10-13T04:25:23.339Z,9.73
2017-10-13T04:27:51.685Z,8.97
2017-10-13T04:30:20.044Z,8.67
2017-10-13T04:32:48.396Z,8.40
2017-10-13T04:35:16.742Z,8.10
2017-10-13T04:37:45.111Z,9.50
2017-10-13T04:40:13.487Z,8.53
2017-10-13T04:42:41.839Z,7.63
2017-10-13T04:45:10.188Z,8.70
2017-10-13T04:47:38.530Z,7.60
2017-10-13T04:50:06.879Z,8.50
2017-10-13T04:52:35.231Z,8.00
2017-10-13T04:55:03.597Z,9.00
2017-10-13T04:57:31.952Z,7.77
2017-10-13T05:00:00.318Z,6.73
2017-10-13T05:02:28.706Z,8.20
2017-10-13T05:04:57.060Z,6.90
2017-10-13T05:07:25.423Z,6.40
2017-10-13T05:09:53.767Z,5.53
2017-10-13T05:12:22.122Z,6.20
2017-10-13T05:14:50.470Z,6.90
2017-10-13T05:17:18.831Z,7.33
2017-10-13T05:19:47.183Z,6.90
2017-10-13T05:22:15.526Z,8.23
2017-10-13T05:24:43.885Z,7.70
2017-10-13T05:27:12.236Z,7.30
2017-10-13T05:29:40.583Z,7.83
2017-10-13T05:32:08.943Z,7.30
2017-10-13T05:34:37.317Z,8.63
2017-10-13T05:37:05.667Z,7.70
2017-10-13T05:39:34.023Z,7.10
2017-10-13T05:42:02.373Z,6.70
2017-10-13T05:44:30.724Z,6.77
2017-10-13T05:46:59.073Z,7.40
2017-10-13T05:49:27.450Z,8.20
2017-10-13T05:51:55.807Z,9.53
2017-10-13T05:54:24.155Z,8.43
2017-10-13T05:56:52.552Z,7.37
2017-10-13T05:59:20.907Z,7.37
2017-10-13T06:01:49.263Z,7.97
2017-10-13T06:04:17.648Z,8.60
2017-10-13T06:06:46.515Z,8.47
2017-10-13T06:09:14.869Z,8.20
2017-10-13T06:11:43.223Z,8.30
2017-10-13T06:14:11.575Z,8.00
2017-10-13T06:16:39.959Z,8.57
2017-10-13T06:19:08.333Z,10.10
2017-10-13T06:21:36.686Z,10.17
2017-10-13T06:24:05.043Z,10.63
2017-10-13T06:26:33.403Z,11.63
2017-10-13T06:29:01.754Z,10.83
2017-10-13T06:31:30.116Z,12.50
2017-10-13T06:33:58.476Z,12.47
2017-10-13T06:36:26.831Z,12.90
2017-10-13T06:38:55.188Z,13.13
2017-10-13T06:41:23.558Z,13.80
2017-10-13T06:43:51.908Z,13.23
2017-10-13T06:46:20.272Z,13.30
2017-10-13T06:48:48.628Z,12.40
2017-10-13T06:51:16.988Z,14.60
2017-10-13T06:53:45.347Z,13.20
2017-10-13T06:56:13.703Z,12.73
2017-10-13T06:58:42.064Z,11.17
2017-10-13T07:01:10.415Z,11.87
2017-10-13T07:03:38.762Z,9.97
2017-10-13T07:06:07.124Z,11.43
2017-10-13T07:08:35.478Z,11.50
2017-10-13T07:11:03.832Z,11.10
2017-10-13T07:13:32.225Z,11.40
2017-10-13T07:16:00.588Z,11.67
2017-10-13T07:18:28.963Z,11.40
2017-10-13T07:20:57.323Z,11.20
2017-10-13T07:23:25.689Z,10.97
2017-10-13T07:25:54.045Z,9.20
2017-10-13T07:28:22.398Z,10.47
2017-10-13T07:30:50.776Z,9.73
2017-10-13T07:33:19.133Z,9.57
2017-10-13T07:35:47.492Z,9.50
2017-10-13T07:38:15.854Z,9.20
2017-10-13T07:40:44.238Z,9.57
2017-10-13T07:43:12.596Z,11.80
2017-10-13T07:45:40.953Z,11.00
2017-10-13T07:48:09.312Z,10.53
2017-10-13T07:50:37.664Z,10.37
2017-10-13T07:53:06.054Z,10.77
2017-10-13T07:55:34.396Z,9.30
2017-10-13T07:58:02.784Z,8.80
2017-10-13T08:00:31.133Z,10.50
2017-10-13T08:02:59.496Z,10.97
2017-10-13T08:05:27.847Z,9.80
2017-10-13T08:07:56.195Z,9.87
2017-10-13T08:10:25.174Z,10.57
2017-10-13T08:12:53.530Z,11.10
2017-10-13T08:15:21.892Z,10.50
2017-10-13T08:17:50.252Z,10.90
2017-10-13T08:20:18.646Z,10.33
2017-10-13T08:22:47.005Z,10.47
2017-10-13T08:25:15.361Z,10.80
2017-10-13T08:27:43.717Z,9.77
2017-10-13T08:30:12.071Z,10.67
2017-10-13T08:32:40.426Z,11.27
2017-10-13T08:35:08.788Z,10.00
2017-10-13T08:37:37.167Z,9.67
2017-10-13T08:40:05.520Z,10.37
2017-10-13T08:42:33.863Z,9.30
2017-10-13T08:45:02.213Z,9.70
2017-10-13T08:47:30.579Z,8.73
2017-10-13T08:49:58.945Z,9.13
2017-10-13T08:52:27.291Z,9.17
2017-10-13T08:54:55.643Z,10.73
2017-10-13T08:57:24.295Z,9.10
2017-10-13T08:59:52.639Z,9.03
2017-10-13T09:02:20.980Z,8.87
2017-10-13T09:04:49.331Z,7.33
2017-10-13T09:07:17.675Z,7.13
2017-10-13T09:09:46.026Z,6.70
2017-10-13T09:12:14.416Z,7.67
2017-10-13T09:14:42.752Z,7.27
2017-10-13T09:17:11.091Z,7.90
2017-10-13T09:19:39.444Z,8.37
2017-10-13T09:22:08.711Z,7.87
2017-10-13T09:24:37.059Z,7.70
2017-10-13T09:27:05.404Z,7.40
2017-10-13T09:29:33.757Z,8.70
2017-10-13T09:32:02.255Z,7.33
2017-10-13T09:34:30.604Z,8.03
2017-10-13T09:36:58.967Z,7.47
2017-10-13T09:39:27.303Z,6.40
2017-10-13T09:41:55.660Z,6.50
2017-10-13T09:44:24.055Z,7.10
2017-10-13T09:46:52.395Z,6.63
2017-10-13T09:49:20.746Z,6.00
2017-10-13T09:51:49.111Z,5.70
2017-10-13T09:54:17.451Z,5.30
2017-10-13T09:56:45.784Z,5.50
2017-10-13T09:59:14.132Z,5.57
2017-10-13T10:01:42.833Z,6.50
2017-10-13T10:04:11.172Z,5.57
2017-10-13T10:06:39.511Z,5.20
2017-10-13T10:09:07.847Z,5.13
2017-10-13T10:11:36.211Z,5.93
2017-10-13T10:14:04.580Z,6.37
2017-10-13T10:16:32.924Z,4.90
2017-10-13T10:19:01.275Z,5.07
2017-10-13T10:21:29.627Z,5.37
2017-10-13T10:23:57.968Z,4.70
2017-10-13T10:26:26.318Z,6.17
2017-10-13T10:28:54.657Z,6.00
2017-10-13T10:31:22.995Z,4.80
2017-10-13T10:33:51.339Z,5.30
2017-10-13T10:36:19.687Z,5.40
2017-10-13T10:38:48.035Z,6.30
2017-10-13T10:41:16.859Z,5.10
2017-10-13T10:43:45.203Z,5.70
2017-10-13T10:46:13.534Z,5.90
2017-10-13T10:48:41.878Z,6.37
2017-10-13T10:51:10.279Z,6.20
2017-10-13T10:53:38.616Z,6.27
2017-10-13T10:56:06.953Z,6.43
2017-10-13T10:58:35.304Z,5.73
2017-10-13T11:01:03.651Z,7.00
2017-10-13T11:03:32.024Z,5.93
2017-10-13T11:06:01.264Z,6.80
2017-10-13T11:08:29.611Z,6.70
2017-10-13T11:10:57.955Z,6.67
2017-10-13T11:13:26.323Z,6.47
2017-10-13T11:15:54.675Z,6.33
2017-10-13T11:18:23.015Z,6.43
2017-10-13T11:20:51.357Z,6.77
2017-10-13T11:23:19.695Z,6.17
2017-10-13T11:25:48.039Z,6.43
2017-10-13T11:28:16.383Z,7.00
2017-10-13T11:30:44.756Z,7.13
2017-10-13T11:33:13.104Z,6.60
2017-10-13T11:35:41.454Z,6.60
2017-10-13T11:38:09.800Z,8.10
2017-10-13T11:40:38.149Z,6.93
2017-10-13T11:43:06.490Z,8.10
2017-10-13T11:45:34.839Z,7.10
2017-10-13T11:48:03.183Z,7.47
2017-10-13T11:50:31.558Z,7.77
2017-10-13T11:52:59.903Z,7.83
2017-10-13T11:55:28.259Z,7.97
2017-10-13T11:57:56.599Z,8.50
2017-10-13T12:00:24.951Z,8.80
2017-10-13T12:02:53.291Z,7.70
2017-10-13T12:05:21.661Z,7.43
2017-10-13T12:07:50.003Z,8.20
2017-10-13T12:10:18.349Z,7.40
2017-10-13T12:12:46.714Z,7.97
2017-10-13T12:15:15.065Z,7.50
2017-10-13T12:17:43.404Z,8.03
2017-10-13T12:20:11.747Z,7.13
2017-10-13T12:22:40.091Z,8.87
2017-10-13T12:25:08.436Z,7.90
2017-10-13T12:27:36.775Z,7.90
2017-10-13T12:30:05.124Z,8.30
2017-10-13T12:32:33.480Z,8.20
2017-10-13T12:35:01.839Z,7.60
2017-10-13T12:37:30.180Z,8.90
2017-10-13T12:39:58.531Z,7.90
2017-10-13T12:42:26.889Z,8.80
2017-10-13T12:44:55.256Z,8.53
2017-10-13T12:47:23.597Z,7.83
2017-10-13T12:49:51.939Z,7.73
2017-10-13T12:52:20.280Z,7.93
2017-10-13T12:54:48.646Z,8.60
2017-10-13T12:57:17.181Z,8.70
2017-10-13T12:59:45.533Z,8.70
2017-10-13T13:02:13.903Z,8.70
2017-10-13T13:04:42.530Z,8.73
2017-10-13T13:07:10.864Z,8.70
2017-10-13T13:09:39.236Z,8.43
2017-10-13T13:12:07.587Z,7.60
2017-10-13T13:14:35.927Z,8.10
2017-10-13T13:17:04.266Z,8.33
2017-10-13T13:19:32.603Z,8.50
2017-10-13T13:22:01.123Z,8.23
2017-10-13T13:24:29.536Z,7.80
2017-10-13T13:26:57.881Z,8.30
2017-10-13T13:29:26.225Z,7.20
2017-10-13T13:31:54.567Z,7.93
2017-10-13T13:34:22.911Z,8.67
2017-10-13T13:36:51.266Z,8.03
2017-10-13T13:39:20.475Z,8.03
2017-10-13T13:41:48.823Z,9.77
2017-10-13T13:44:17.176Z,9.43
2017-10-13T13:46:45.551Z,8.57
2017-10-13T13:49:13.902Z,9.23
2017-10-13T13:51:42.244Z,9.67
2017-10-13T13:54:10.591Z,10.97
2017-10-13T13:56:38.942Z,10.20
2017-10-13T13:59:07.328Z,11.00
2017-10-13T14:01:35.694Z,11.10
2017-10-13T14:04:04.050Z,12.70
2017-10-13T14:06:32.400Z,11.93
2017-10-13T14:09:00.758Z,12.43
2017-10-13T14:11:29.132Z,11.53
2017-10-13T14:13:57.479Z,12.10
2017-10-13T14:16:25.864Z,12.40
2017-10-13T14:18:54.258Z,13.07
2017-10-13T14:21:22.612Z,12.33
2017-10-13T14:23:50.993Z,12.63
2017-10-13T14:26:19.340Z,13.27
2017-10-13T14:28:47.687Z,13.20
2017-10-13T14:31:16.053Z,12.20
2017-10-13T14:33:44.410Z,12.70
2017-10-13T14:36:12.766Z,13.10
2017-10-13T14:38:41.120Z,13.40
2017-10-13T14:41:09.466Z,13.10
2017-10-13T14:43:37.833Z,14.10
2017-10-13T14:46:06.211Z,13.37
2017-10-13T14:48:34.567Z,12.10
2017-10-13T14:51:02.915Z,12.53
2017-10-13T14:53:31.273Z,12.43
2017-10-13T14:55:59.626Z,12.60
2017-10-13T14:58:27.978Z,12.23
2017-10-13T15:00:56.327Z,12.43
2017-10-13T15:03:24.690Z,11.93
2017-10-13T15:05:53.053Z,12.03
2017-10-13T15:08:21.391Z,11.70
2017-10-13T15:10:49.752Z,10.30
2017-10-13T15:13:18.111Z,10.97
2017-10-13T15:15:46.483Z,10.70
2017-10-13T15:18:14.841Z,10.60
2017-10-13T15:20:43.189Z,10.70
2017-10-13T15:23:11.635Z,9.60
2017-10-13T15:25:46.573Z,10.13
2017-10-13T15:28:20.516Z,10.33
2017-10-13T15:30:54.492Z,9.60
2017-10-13T15:33:28.324Z,10.63
2017-10-13T15:36:02.291Z,9.73
2017-10-13T15:38:36.070Z,10.50
2017-10-13T15:41:09.988Z,10.07
2017-10-13T15:43:43.836Z,10.27
2017-10-13T15:46:17.735Z,10.13
2017-10-13T15:48:46.091Z,9.97
2017-10-13T15:51:19.964Z,11.67
2017-10-13T15:53:48.320Z,11.03
2017-10-13T15:56:16.675Z,10.93
2017-10-13T15:58:45.049Z,12.77
2017-10-13T16:01:13.401Z,12.13
2017-10-13T16:03:41.761Z,12.90
2017-10-13T16:06:10.115Z,12.40
2017-10-13T16:08:38.467Z,12.63
2017-10-13T16:11:06.831Z,12.60
2017-10-13T16:13:35.449Z,12.27
2017-10-13T16:16:03.808Z,12.30
2017-10-13T16:18:32.157Z,11.87
2017-10-13T16:21:00.525Z,13.30
2017-10-13T16:23:29.051Z,13.27
2017-10-13T16:25:57.628Z,12.63
2017-10-13T16:28:25.988Z,12.27
2017-10-13T16:30:54.347Z,13.10
2017-10-13T16:33:22.704Z,13.03
2017-10-13T16:35:51.064Z,14.17
2017-10-13T16:38:19.422Z,13.90
2017-10-13T16:40:47.791Z,13.70
2017-10-13T16:43:16.147Z,11.97
2017-10-13T16:45:44.530Z,12.80
2017-10-13T16:48:12.888Z,14.03
2017-10-13T16:50:41.244Z,14.30
2017-10-13T16:53:09.612Z,14.43
2017-10-13T16:55:37.969Z,17.00
2017-10-13T16:58:06.731Z,16.90
2017-10-13T17:00:35.158Z,15.70
2017-10-13T17:03:03.515Z,15.60
2017-10-13T17:05:31.875Z,15.40
2017-10-13T17:08:00.241Z,16.57
2017-10-13T17:10:28.598Z,16.70
2017-10-13T17:12:56.990Z,16.60
2017-10-13T17:15:25.355Z,15.50
2017-10-13T17:17:53.715Z,17.00
2017-10-13T17:20:22.113Z,16.70
2017-10-13T17:22:50.476Z,15.07
2017-10-13T17:25:18.845Z,15.70
2017-10-13T17:27:47.249Z,15.00
2017-10-13T17:30:15.626Z,16.30
2017-10-13T17:32:44.007Z,16.00
2017-10-13T17:35:12.367Z,15.87
2017-10-13T17:37:40.774Z,18.73
2017-10-13T17:40:09.127Z,16.90
2017-10-13T17:42:37.543Z,16.30
2017-10-13T17:45:05.908Z,14.33
2017-10-13T17:47:34.264Z,14.40
2017-10-13T17:50:02.653Z,16.10
2017-10-13T17:52:31.011Z,14.50
2017-10-13T17:54:59.377Z,15.10
2017-10-13T17:57:27.761Z,15.00
2017-10-13T17:59:56.125Z,14.30
2017-10-13T18:02:24.504Z,14.80
2017-10-13T18:04:52.855Z,14.73
2017-10-13T18:07:21.219Z,15.13
2017-10-13T18:09:49.602Z,16.00
2017-10-13T18:12:17.966Z,14.00
2017-10-13T18:14:46.324Z,16.47
2017-10-13T18:17:14.791Z,16.13
2017-10-13T18:19:43.180Z,15.87
2017-10-13T18:22:11.546Z,15.23
2017-10-13T18:24:39.937Z,15.63
2017-10-13T18:27:08.290Z,14.97
2017-10-13T18:29:36.691Z,18.30
2017-10-13T18:32:05.044Z,18.20
2017-10-13T18:34:33.426Z,18.90
2017-10-13T18:37:01.815Z,18.53
2017-10-13T18:39:30.259Z,19.37
2017-10-13T18:41:59.071Z,18.27
2017-10-13T18:44:27.428Z,18.57
2017-10-13T18:46:55.830Z,18.67
2017-10-13T18:49:24.195Z,17.80
2017-10-13T18:51:52.556Z,18.60
2017-10-13T18:54:20.965Z,19.40
2017-10-13T18:56:49.319Z,18.90
2017-10-13T18:59:17.676Z,17.80
2017-10-13T19:01:46.072Z,18.53
2017-10-13T19:04:14.443Z,18.03
2017-10-13T19:06:42.929Z,18.97
2017-10-13T19:09:11.379Z,19.80
2017-10-13T19:11:39.746Z,18.93
2017-10-13T19:14:08.107Z,18.57
2017-10-13T19:16:36.488Z,20.10
2017-10-13T19:19:04.875Z,21.00
2017-10-13T19:21:33.230Z,21.00
2017-10-13T19:24:01.623Z,19.83
2017-10-13T19:26:29.987Z,22.47
2017-10-13T19:28:58.367Z,21.50
2017-10-13T19:31:26.760Z,22.43
2017-10-13T19:33:55.517Z,20.87
2017-10-13T19:36:23.920Z,22.77
2017-10-13T19:38:52.279Z,23.60
2017-10-13T19:41:20.668Z,23.23
2017-10-13T19:43:49.037Z,21.80
2017-10-13T19:46:19.273Z,23.00
2017-10-13T19:48:47.872Z,22.20
2017-10-13T19:51:16.232Z,23.17
2017-10-13T19:53:44.621Z,24.10
2017-10-13T19:56:13.175Z,24.50
2017-10-13T19:58:41.572Z,22.97
2017-10-13T20:01:09.944Z,23.00
2017-10-13T20:03:38.535Z,23.27
2017-10-13T20:06:07.178Z,22.53
2017-10-13T20:08:36.280Z,24.07
2017-10-13T20:11:04.741Z,24.40
2017-10-13T20:13:33.112Z,25.70
2017-10-13T20:16:01.552Z,23.73
2017-10-13T20:18:30.323Z,26.27
2017-10-13T20:20:58.680Z,24.40
2017-10-13T20:23:27.039Z,26.03
2017-10-13T20:25:55.395Z,24.10
2017-10-13T20:28:23.760Z,24.00
2017-10-13T20:30:52.115Z,25.37
2017-10-13T20:33:20.478Z,23.53
2017-10-13T20:35:48.835Z,24.17
2017-10-13T20:38:17.213Z,22.93
2017-10-13T20:40:45.573Z,22.70
2017-10-13T20:43:13.927Z,22.50
2017-10-13T20:45:42.286Z,22.00
2017-10-13T20:48:10.644Z,21.50
2017-10-13T20:50:38.999Z,20.90
2017-10-13T20:53:07.363Z,22.00
2017-10-13T20:55:35.735Z,19.90
2017-10-13T20:58:04.091Z,20.97
2017-10-13T21:00:32.449Z,19.70
2017-10-13T21:03:00.816Z,20.60
2017-10-13T21:05:29.323Z,19.73
2017-10-13T21:07:57.683Z,17.40
2017-10-13T21:10:26.474Z,17.00
2017-10-13T21:12:54.940Z,18.80
2017-10-13T21:15:23.384Z,16.43
2017-10-13T21:17:51.747Z,13.87
2017-10-13T21:20:20.105Z,14.27
2017-10-13T21:22:48.556Z,12.87
2017-10-13T21:25:16.919Z,14.30
2017-10-13T21:27:45.306Z,12.87
2017-10-13T21:30:13.660Z,10.60
2017-10-13T21:32:42.047Z,10.83
2017-10-13T21:35:10.469Z,12.13
2017-10-13T21:37:38.823Z,10.90
2017-10-13T21:40:07.195Z,10.80
2017-10-13T21:42:35.590Z,10.87
2017-10-13T21:45:03.939Z,10.33
2017-10-13T21:47:32.348Z,10.17
2017-10-13T21:50:00.695Z,9.90
2017-10-13T21:52:29.047Z,9.40
2017-10-13T21:54:57.430Z,10.10
2017-10-13T21:57:25.799Z,12.63
2017-10-13T21:59:54.198Z,13.27
2017-10-13T22:02:22.580Z,11.60
2017-10-13T22:04:56.484Z,16.10
2017-10-13T22:07:24.888Z,14.37
2017-10-13T22:09:53.247Z,12.67
2017-10-13T22:12:21.758Z,13.77
2017-10-13T22:14:50.103Z,14.10
2017-10-13T22:17:18.503Z,14.87
2017-10-13T22:19:46.852Z,14.57
2017-10-13T22:22:15.235Z,14.13
2017-10-13T22:24:43.596Z,15.07
2017-10-13T22:27:11.955Z,15.33
2017-10-13T22:29:40.312Z,16.40
2017-10-13T22:32:08.672Z,15.40
2017-10-13T22:34:37.057Z,18.07
2017-10-13T22:37:05.463Z,18.13
2017-10-13T22:39:33.827Z,18.10
2017-10-13T22:42:03.011Z,20.57
2017-10-13T22:44:31.399Z,20.70
2017-10-13T22:46:59.886Z,19.43
2017-10-13T22:49:28.268Z,20.43
2017-10-13T22:51:56.637Z,21.10
2017-10-13T22:54:25.023Z,19.13
2017-10-13T22:56:53.407Z,19.27
2017-10-13T22:59:21.784Z,18.73
2017-10-13T23:01:50.146Z,18.23
2017-10-13T23:04:18.499Z,16.70
2017-10-13T23:06:46.855Z,16.73
2017-10-13T23:09:15.239Z,15.13
2017-10-13T23:11:43.632Z,15.13
2017-10-13T23:14:12.020Z,15.40
2017-10-13T23:16:40.374Z,15.03
2017-10-13T23:19:08.767Z,14.40
2017-10-13T23:21:37.129Z,15.77
2017-10-13T23:24:05.516Z,16.30
2017-10-13T23:26:33.872Z,16.90
2017-10-13T23:29:02.511Z,16.70
2017-10-13T23:31:30.870Z,17.87
2017-10-13T23:33:59.263Z,18.20
2017-10-13T23:36:27.619Z,17.50
2017-10-13T23:38:55.980Z,18.47
2017-10-13T23:41:24.336Z,16.57
2017-10-13T23:43:52.691Z,18.20
2017-10-13T23:46:21.079Z,18.27
2017-10-13T23:48:49.439Z,17.87
2017-10-13T23:51:17.800Z,17.27
2017-10-13T23:53:46.188Z,18.50
2017-10-13T23:56:14.575Z,18.87
2017-10-13T23:58:43.269Z,16.00
